Time;durP1;ratioP1;P1;durP2;ratioP2;P2;SDS_P1;SDS_P2;PMS_P1;PMS_P2;Temp;Humidity;BMP_temperature;BMP_pressure;BME280_temperature;BME280_humidity;BME280_pressure;Samples;Min_cycle;Max_cycle;Signal;HPM_P1;HPM_P2
2023/04/01 00:02:03;;;;;;;45.93;42.73;;;;;;;6.73;100.00;99637.72;5020305;28;20433;-42
2023/04/01 00:04:32;;;;;;;45.70;42.53;;;;;;;6.67;100.00;99630.56;5020295;28;20445;-43
2023/04/01 00:07:01;;;;;;;44.33;41.33;;;;;;;6.63;100.00;99624.03;5020646;28;20544;-46
2023/04/01 00:09:29;;;;;;;42.67;39.40;;;;;;;6.60;100.00;99629.75;5020494;28;20465;-45
2023/04/01 00:11:57;;;;;;;43.50;40.17;;;;;;;6.55;100.00;99637.44;5020427;28;20484;-42
2023/04/01 00:14:25;;;;;;;42.23;38.53;;;;;;;6.54;100.00;99630.53;5019952;28;20918;-43
2023/04/01 00:16:54;;;;;;;40.83;38.23;;;;;;;6.49;100.00;99638.22;5020179;28;20457;-47
2023/04/01 00:19:22;;;;;;;38.00;35.60;;;;;;;6.40;100.00;99629.63;5019217;28;20472;-42
2023/04/01 00:21:50;;;;;;;39.00;36.70;;;;;;;6.38;100.00;99631.66;5020899;28;21045;-42
2023/04/01 00:24:17;;;;;;;38.60;36.30;;;;;;;6.32;100.00;99650.16;5020063;28;20435;-46
2023/04/01 00:26:45;;;;;;;38.03;35.67;;;;;;;6.25;100.00;99666.00;5019379;28;20460;-46
2023/04/01 00:29:13;;;;;;;40.70;37.97;;;;;;;6.20;100.00;99657.84;5019492;28;20855;-47
2023/04/01 00:31:40;;;;;;;40.03;37.60;;;;;;;6.21;100.00;99664.78;5020294;28;20504;-44
2023/04/01 00:34:09;;;;;;;42.60;39.57;;;;;;;6.14;100.00;99655.97;5020251;28;20444;-50
2023/04/01 00:36:38;;;;;;;42.47;39.87;;;;;;;6.13;100.00;99654.31;5020000;28;20457;-46
2023/04/01 00:39:05;;;;;;;44.47;41.13;;;;;;;6.15;100.00;99654.97;5019742;28;20883;-44
2023/04/01 00:41:33;;;;;;;48.13;45.07;;;;;;;6.12;100.00;99658.00;5019711;28;20444;-48
2023/04/01 00:44:18;;;;;;;53.67;49.90;;;;;;;6.07;100.00;99663.03;5019289;28;20441;-45
2023/04/01 00:46:46;;;;;;;50.93;47.73;;;;;;;6.06;100.00;99664.06;5019940;28;20500;-43
2023/04/01 00:49:18;;;;;;;50.03;46.53;;;;;;;6.04;100.00;99652.84;5019522;28;20552;-44
2023/04/01 00:51:47;;;;;;;48.53;45.43;;;;;;;6.01;100.00;99659.34;5018957;28;20997;-44
2023/04/01 00:54:17;;;;;;;45.23;42.30;;;;;;;5.96;100.00;99655.66;5019243;28;20472;-42
2023/04/01 00:56:49;;;;;;;46.50;43.50;;;;;;;5.93;100.00;99664.78;5018883;28;20444;-45
2023/04/01 00:59:23;;;;;;;46.60;43.33;;;;;;;5.91;100.00;99671.28;5018913;28;20531;-45
2023/04/01 01:01:50;;;;;;;45.97;42.80;;;;;;;5.89;100.00;99665.34;5019025;28;20946;-43
2023/04/01 01:04:25;;;;;;;46.87;43.87;;;;;;;5.83;100.00;99668.72;5018990;28;20449;-42
2023/04/01 01:07:03;;;;;;;49.87;46.20;;;;;;;5.88;100.00;99698.13;5018515;28;20532;-43
2023/04/01 01:09:40;;;;;;;47.43;43.63;;;;;;;5.79;100.00;99673.63;5014271;28;20524;-48
2023/04/01 01:12:14;;;;;;;47.77;44.60;;;;;;;5.82;100.00;99680.34;5018957;28;20563;-44
2023/04/01 01:14:53;;;;;;;48.90;45.50;;;;;;;5.78;100.00;99685.19;5019426;28;20443;-46
2023/04/01 01:17:31;;;;;;;44.73;42.13;;;;;;;5.78;100.00;99682.56;5015031;28;20536;-48
2023/04/01 01:20:30;;;;;;;46.60;43.47;;;;;;;5.71;100.00;99679.03;5012240;28;20465;-44
2023/04/01 01:23:26;;;;;;;43.30;40.90;;;;;;;5.68;100.00;99679.41;4991793;28;20429;-46
2023/04/01 01:26:09;;;;;;;43.30;40.80;;;;;;;5.74;100.00;99683.94;5012164;28;20464;-46
2023/04/01 01:28:49;;;;;;;41.87;39.37;;;;;;;5.68;100.00;99689.97;5011858;28;20487;-47
2023/04/01 01:31:22;;;;;;;41.13;38.60;;;;;;;5.65;100.00;99682.44;5012469;28;20421;-45
2023/04/01 01:34:03;;;;;;;40.40;38.40;;;;;;;5.62;100.00;99693.38;5012694;28;20765;-49
2023/04/01 01:36:35;;;;;;;41.37;38.67;;;;;;;5.57;100.00;99698.44;5012088;28;20445;-45
2023/04/01 01:39:06;;;;;;;46.80;44.40;;;;;;;5.61;100.00;99688.31;5011673;28;20475;-43
2023/04/01 01:41:35;;;;;;;48.97;46.17;;;;;;;5.56;100.00;99712.66;5012067;28;20803;-49
2023/04/01 01:44:05;;;;;;;47.80;45.30;;;;;;;5.50;100.00;99695.72;5012431;28;20437;-47
2023/04/01 01:46:33;;;;;;;52.10;49.30;;;;;;;5.41;100.00;99693.38;5012919;28;20452;-46
2023/04/01 01:49:04;;;;;;;54.77;51.70;;;;;;;5.41;100.00;99674.88;5012864;28;20460;-49
2023/04/01 01:51:33;;;;;;;53.27;50.50;;;;;;;5.44;100.00;99704.41;5013116;28;20437;-48
2023/04/01 01:54:00;;;;;;;51.40;48.70;;;;;;;5.45;100.00;99705.22;5013239;28;20566;-44
2023/04/01 01:56:30;;;;;;;49.30;46.73;;;;;;;5.43;100.00;99720.47;5013026;28;20456;-46
2023/04/01 01:59:01;;;;;;;47.07;44.20;;;;;;;5.45;100.00;99706.06;5013183;28;20886;-44
2023/04/01 02:01:32;;;;;;;44.50;42.03;;;;;;;5.46;100.00;99715.63;5012970;28;20443;-45
2023/04/01 02:04:00;;;;;;;42.63;40.47;;;;;;;5.39;100.00;99730.59;5012995;28;20797;-44
2023/04/01 02:06:33;;;;;;;41.83;39.43;;;;;;;5.39;100.00;99732.44;5012667;28;20990;-44
2023/04/01 02:09:04;;;;;;;41.47;38.93;;;;;;;5.41;100.00;99733.03;5012782;28;20465;-45
2023/04/01 02:11:39;;;;;;;43.23;41.00;;;;;;;5.38;100.00;99733.41;5012661;28;20854;-44
2023/04/01 02:14:11;;;;;;;42.70;40.40;;;;;;;5.35;100.00;99739.09;5012964;28;20545;-44
2023/04/01 02:16:45;;;;;;;41.83;39.83;;;;;;;5.29;100.00;99743.28;5012552;28;20842;-44
2023/04/01 02:19:15;;;;;;;40.67;38.50;;;;;;;5.27;100.00;99745.31;5012287;28;20456;-44
2023/04/01 02:21:44;;;;;;;40.63;38.53;;;;;;;5.24;100.00;99739.59;5012694;28;20433;-43
2023/04/01 02:24:15;;;;;;;41.63;39.37;;;;;;;5.20;100.00;99740.94;5013351;28;20460;-44
2023/04/01 02:26:45;;;;;;;43.90;41.70;;;;;;;5.17;100.00;99768.56;5012806;28;20457;-47
2023/04/01 02:29:13;;;;;;;45.40;42.60;;;;;;;5.13;100.00;99772.59;5012270;28;20461;-44
2023/04/01 02:31:43;;;;;;;44.50;42.40;;;;;;;5.16;100.00;99764.31;5012126;28;20440;-45
2023/04/01 02:34:11;;;;;;;45.63;43.13;;;;;;;5.13;100.00;99763.84;5012530;28;20487;-44
2023/04/01 02:36:39;;;;;;;47.27;44.93;;;;;;;5.11;100.00;99771.16;5011880;28;21000;-45
2023/04/01 02:39:08;;;;;;;97.43;92.77;;;;;;;5.03;100.00;99772.88;5012170;28;20460;-43
2023/04/01 02:41:41;;;;;;;119.90;114.80;;;;;;;5.12;100.00;99780.72;5012732;28;20437;-44
2023/04/01 02:44:09;;;;;;;132.97;127.70;;;;;;;5.02;100.00;99768.59;5012917;28;21015;-44
2023/04/01 02:46:37;;;;;;;138.60;132.97;;;;;;;4.96;100.00;99787.00;5012542;28;20457;-46
2023/04/01 02:49:05;;;;;;;184.90;177.70;;;;;;;4.95;100.00;99780.94;5007551;28;20438;-44
2023/04/01 02:51:33;;;;;;;226.97;218.13;;;;;;;4.88;100.00;99797.69;5012344;28;20435;-46
2023/04/01 02:54:01;;;;;;;240.43;231.23;;;;;;;4.87;100.00;99799.50;5012409;28;20519;-43
2023/04/01 02:56:29;;;;;;;264.03;253.70;;;;;;;4.89;100.00;99797.50;5012586;28;20473;-47
2023/04/01 02:58:58;;;;;;;299.23;287.23;;;;;;;4.90;100.00;99795.66;5011972;28;20433;-44
2023/04/01 03:01:25;;;;;;;320.87;307.77;;;;;;;4.89;100.00;99804.59;5011840;28;20437;-45
2023/04/01 03:03:53;;;;;;;337.07;323.30;;;;;;;4.78;100.00;99816.44;5011878;28;20443;-44
2023/04/01 03:06:21;;;;;;;428.80;408.60;;;;;;;4.79;100.00;99828.66;5012418;28;20453;-44
2023/04/01 03:08:48;;;;;;;441.63;419.90;;;;;;;4.78;100.00;99821.72;5014563;28;20433;-51
2023/04/01 03:11:16;;;;;;;448.40;424.30;;;;;;;4.74;100.00;99841.59;5015085;28;20515;-44
2023/04/01 03:13:44;;;;;;;442.87;419.13;;;;;;;4.75;100.00;99837.13;5016134;28;20476;-44
2023/04/01 03:16:13;;;;;;;441.63;417.70;;;;;;;4.73;100.00;99832.00;5016300;28;20506;-44
2023/04/01 03:18:41;;;;;;;435.43;412.73;;;;;;;4.68;100.00;99831.75;5016206;28;20776;-47
2023/04/01 03:21:16;;;;;;;428.93;407.07;;;;;;;4.62;100.00;99832.47;5012691;28;20475;-43
2023/04/01 03:23:44;;;;;;;440.93;418.07;;;;;;;4.54;100.00;99850.22;5015431;28;20466;-43
2023/04/01 03:26:12;;;;;;;449.97;422.33;;;;;;;4.49;100.00;99845.44;5015692;28;20850;-46
2023/04/01 03:28:40;;;;;;;457.83;430.90;;;;;;;4.47;100.00;99847.47;5015037;28;20429;-43
2023/04/01 03:31:08;;;;;;;462.07;435.23;;;;;;;4.43;100.00;99859.38;5014509;28;20468;-45
2023/04/01 03:33:37;;;;;;;456.73;430.90;;;;;;;4.38;100.00;99864.38;5014848;28;20473;-42
2023/04/01 03:36:06;;;;;;;450.30;424.80;;;;;;;4.32;100.00;99857.97;5015389;28;20461;-46
2023/04/01 03:38:34;;;;;;;449.80;425.80;;;;;;;4.29;100.00;99860.97;5015810;28;20441;-42
2023/04/01 03:41:02;;;;;;;457.90;434.00;;;;;;;4.31;100.00;99863.44;5015058;28;20469;-43
2023/04/01 03:43:30;;;;;;;433.73;411.80;;;;;;;4.28;100.00;99876.97;5015712;28;20428;-44
2023/04/01 03:45:58;;;;;;;431.63;409.87;;;;;;;4.26;100.00;99879.81;5015766;28;20460;-43
2023/04/01 03:48:26;;;;;;;424.07;403.07;;;;;;;4.22;100.00;99893.50;5015763;28;20775;-45
2023/04/01 03:50:55;;;;;;;425.30;405.47;;;;;;;4.20;100.00;99887.59;5015259;28;20457;-43
2023/04/01 03:53:23;;;;;;;418.23;398.23;;;;;;;4.21;100.00;99883.97;5015356;28;20484;-44
2023/04/01 03:55:51;;;;;;;421.70;401.70;;;;;;;4.22;100.00;99875.03;5015687;28;20878;-42
2023/04/01 03:58:19;;;;;;;424.83;404.60;;;;;;;4.24;100.00;99896.81;5015767;28;20433;-45
2023/04/01 04:00:47;;;;;;;421.80;402.40;;;;;;;4.16;100.00;99897.69;5015769;28;20469;-48
2023/04/01 04:03:15;;;;;;;410.57;391.60;;;;;;;4.15;100.00;99901.31;5016058;28;20440;-45
2023/04/01 04:05:47;;;;;;;412.00;392.13;;;;;;;4.17;100.00;99903.78;5016099;28;20444;-43
2023/04/01 04:08:17;;;;;;;416.30;396.30;;;;;;;4.10;100.00;99916.03;5015441;28;20436;-43
2023/04/01 04:10:46;;;;;;;422.90;403.13;;;;;;;4.09;100.00;99909.91;5015247;28;20508;-43
2023/04/01 04:13:13;;;;;;;425.63;405.63;;;;;;;4.12;100.00;99906.94;5015274;28;20850;-44
2023/04/01 04:15:41;;;;;;;426.80;406.53;;;;;;;4.15;100.00;99911.06;5015574;28;20448;-43
2023/04/01 04:18:09;;;;;;;408.00;388.00;;;;;;;4.19;100.00;99910.53;5014216;28;20487;-44
2023/04/01 04:20:36;;;;;;;398.87;380.30;;;;;;;4.15;100.00;99924.25;5014812;28;20469;-44
2023/04/01 04:23:04;;;;;;;405.97;387.17;;;;;;;4.10;100.00;99930.03;5014960;28;20465;-45
2023/04/01 04:25:33;;;;;;;398.80;380.20;;;;;;;4.11;100.00;99931.69;5015320;28;20463;-44
2023/04/01 04:28:01;;;;;;;385.70;367.80;;;;;;;4.11;100.00;99928.22;5014953;28;20519;-43
2023/04/01 04:30:29;;;;;;;375.83;358.23;;;;;;;4.09;100.00;99935.50;5014357;28;20465;-44
2023/04/01 04:32:57;;;;;;;356.87;340.60;;;;;;;4.08;100.00;99939.97;5014902;28;20440;-44
2023/04/01 04:35:24;;;;;;;337.50;322.93;;;;;;;4.06;100.00;99943.78;5014465;28;20820;-43
2023/04/01 04:37:52;;;;;;;313.27;300.47;;;;;;;4.06;100.00;99949.06;5014835;28;20437;-44
2023/04/01 04:40:20;;;;;;;257.13;247.20;;;;;;;4.02;100.00;99969.69;5014710;28;20488;-46
2023/04/01 04:42:49;;;;;;;223.00;214.50;;;;;;;3.98;100.00;99963.09;5015497;28;20939;-43
2023/04/01 04:45:16;;;;;;;209.67;202.17;;;;;;;3.96;100.00;99965.09;5014971;28;20437;-43
2023/04/01 04:47:44;;;;;;;188.67;182.03;;;;;;;3.99;100.00;99961.28;5014963;28;20453;-42
2023/04/01 04:50:12;;;;;;;172.53;166.40;;;;;;;4.00;100.00;99968.22;5014368;28;20480;-42
2023/04/01 04:52:40;;;;;;;183.10;176.20;;;;;;;4.04;100.00;99962.41;5014409;28;20433;-44
2023/04/01 04:55:08;;;;;;;183.07;176.37;;;;;;;4.02;100.00;99958.28;5014546;28;20559;-43
2023/04/01 04:57:36;;;;;;;176.73;169.90;;;;;;;3.99;100.00;99977.09;5014559;28;20457;-42
2023/04/01 05:00:07;;;;;;;263.03;253.20;;;;;;;3.98;100.00;99981.56;5013999;28;20464;-44
2023/04/01 05:02:35;;;;;;;270.37;260.53;;;;;;;3.90;100.00;99982.44;5014552;28;20907;-42
2023/04/01 05:05:03;;;;;;;267.80;257.23;;;;;;;3.96;100.00;99972.19;5014294;28;20510;-44
2023/04/01 05:07:31;;;;;;;282.90;272.10;;;;;;;3.94;100.00;99987.38;5013909;28;20471;-42
2023/04/01 05:09:59;;;;;;;295.83;284.03;;;;;;;3.98;100.00;99994.75;5013776;28;20471;-43
2023/04/01 05:12:26;;;;;;;292.43;281.03;;;;;;;3.99;100.00;99995.56;5013739;28;20437;-43
2023/04/01 05:14:54;;;;;;;269.57;259.47;;;;;;;3.96;100.00;99995.91;5013629;28;20815;-43
2023/04/01 05:17:23;;;;;;;275.10;264.90;;;;;;;3.96;100.00;100001.19;5013734;28;20465;-44
2023/04/01 05:19:51;;;;;;;260.43;250.33;;;;;;;3.92;100.00;100003.34;5012806;28;21013;-44
2023/04/01 05:22:19;;;;;;;270.10;260.03;;;;;;;3.95;100.00;99999.53;5013068;28;20440;-44
2023/04/01 05:24:46;;;;;;;281.03;270.40;;;;;;;3.95;100.00;100004.81;5013142;28;20969;-45
2023/04/01 05:27:14;;;;;;;230.27;222.13;;;;;;;3.96;100.00;100006.47;5013033;28;20488;-43
2023/04/01 05:29:42;;;;;;;272.47;261.73;;;;;;;3.96;100.00;100009.09;5012512;28;20488;-49
2023/04/01 05:32:09;;;;;;;298.53;286.43;;;;;;;3.95;100.00;100005.66;5013071;28;20433;-43
2023/04/01 05:34:38;;;;;;;291.57;280.10;;;;;;;3.90;100.00;100024.63;5013307;28;20836;-43
2023/04/01 05:37:07;;;;;;;297.77;285.87;;;;;;;3.96;100.00;100028.41;5012865;28;20507;-44
2023/04/01 05:39:37;;;;;;;307.40;294.70;;;;;;;3.98;100.00;100017.66;5007329;28;20456;-43
2023/04/01 05:42:07;;;;;;;309.27;296.57;;;;;;;3.98;100.00;100029.03;5012800;28;20437;-44
2023/04/01 05:44:35;;;;;;;318.90;305.80;;;;;;;3.98;100.00;100025.56;5013155;28;20429;-44
2023/04/01 05:47:03;;;;;;;320.53;307.40;;;;;;;4.00;100.00;100020.97;5013031;28;20515;-43
2023/04/01 05:49:31;;;;;;;344.67;329.93;;;;;;;3.99;100.00;100041.25;5012315;28;20433;-43
2023/04/01 05:52:00;;;;;;;374.33;356.90;;;;;;;3.97;100.00;100045.88;5012538;28;20549;-44
2023/04/01 05:54:28;;;;;;;390.60;372.10;;;;;;;3.97;100.00;100051.16;5011967;28;20486;-43
2023/04/01 05:56:56;;;;;;;387.17;368.40;;;;;;;3.99;100.00;100061.53;5011968;28;20484;-43
2023/04/01 05:59:24;;;;;;;397.33;377.73;;;;;;;4.02;100.00;100053.28;5011702;28;20440;-44
2023/04/01 06:01:51;;;;;;;406.50;385.67;;;;;;;4.02;100.00;100055.91;5011868;28;20429;-45
2023/04/01 06:04:19;;;;;;;413.70;391.40;;;;;;;4.01;100.00;100062.16;5011949;28;20452;-44
2023/04/01 06:06:47;;;;;;;394.50;372.60;;;;;;;4.03;100.00;100060.19;5011953;28;20816;-43
2023/04/01 06:09:18;;;;;;;400.97;379.57;;;;;;;4.01;100.00;100062.16;5011803;28;20479;-44
2023/04/01 06:12:07;;;;;;;404.60;384.13;;;;;;;4.02;100.00;100064.66;5011636;28;20441;-43
2023/04/01 06:14:44;;;;;;;387.33;367.40;;;;;;;4.01;100.00;100070.09;5011968;28;20468;-43
2023/04/01 06:17:27;;;;;;;412.47;389.93;;;;;;;4.00;100.00;100082.47;5011798;28;20452;-43
2023/04/01 06:20:04;;;;;;;414.30;391.57;;;;;;;4.03;100.00;100091.88;5011715;28;20445;-45
2023/04/01 06:22:52;;;;;;;422.77;398.27;;;;;;;4.07;100.00;100101.06;5011755;28;20530;-43
2023/04/01 06:25:33;;;;;;;437.73;411.93;;;;;;;4.05;100.00;100085.41;5011841;28;20523;-44
2023/04/01 06:28:31;;;;;;;431.07;405.57;;;;;;;4.03;100.00;100097.13;5010525;28;20436;-47
2023/04/01 06:31:06;;;;;;;440.67;412.97;;;;;;;4.01;100.00;100104.38;4998854;28;20978;-43
2023/04/01 06:33:49;;;;;;;451.57;422.57;;;;;;;4.04;100.00;100119.88;5011757;28;20428;-43
2023/04/01 06:36:50;;;;;;;448.80;420.10;;;;;;;4.05;100.00;100100.41;5011395;28;20501;-44
2023/04/01 06:39:33;;;;;;;431.30;404.10;;;;;;;4.04;100.00;100122.50;5010841;28;20452;-43
2023/04/01 06:42:24;;;;;;;448.73;419.40;;;;;;;4.04;100.00;100117.22;5013092;28;20429;-45
2023/04/01 06:45:04;;;;;;;438.40;411.10;;;;;;;4.04;100.00;100123.34;5015314;28;20442;-45
2023/04/01 06:47:43;;;;;;;439.23;410.53;;;;;;;4.01;100.00;100138.66;5015684;28;20461;-45
2023/04/01 06:50:21;;;;;;;432.20;403.00;;;;;;;4.04;100.00;100133.06;5014653;28;20460;-43
2023/04/01 06:52:57;;;;;;;428.00;400.57;;;;;;;4.06;100.00;100142.44;5015190;28;20437;-43
2023/04/01 06:55:32;;;;;;;406.30;378.93;;;;;;;4.04;100.00;100135.69;5014830;28;20472;-43
2023/04/01 06:58:05;;;;;;;414.23;386.33;;;;;;;4.02;100.00;100142.97;5015145;28;20941;-42
2023/04/01 07:00:36;;;;;;;421.03;392.53;;;;;;;4.01;100.00;100131.59;5014724;28;20468;-47
2023/04/01 07:03:17;;;;;;;415.80;387.60;;;;;;;4.04;100.00;100151.53;5014799;28;20437;-45
2023/04/01 07:05:45;;;;;;;401.43;374.33;;;;;;;4.04;100.00;100156.81;5015170;28;20436;-43
2023/04/01 07:08:16;;;;;;;405.23;377.80;;;;;;;4.06;100.00;100160.13;5015119;28;20463;-43
2023/04/01 07:10:50;;;;;;;416.37;390.27;;;;;;;4.06;100.00;100146.94;5014126;28;20556;-42
2023/04/01 07:13:23;;;;;;;429.37;402.10;;;;;;;4.02;100.00;100187.81;5012196;28;20444;-43
2023/04/01 07:16:00;;;;;;;438.60;412.57;;;;;;;4.03;100.00;100178.91;5013578;28;20473;-43
2023/04/01 07:18:35;;;;;;;432.10;407.10;;;;;;;4.00;100.00;100176.63;4983587;28;20475;-45
2023/04/01 07:21:10;;;;;;;445.10;419.40;;;;;;;3.97;100.00;100167.22;5013780;28;20432;-43
2023/04/01 07:23:42;;;;;;;437.70;411.80;;;;;;;3.95;100.00;100179.75;5010908;28;20965;-42
2023/04/01 07:26:17;;;;;;;444.10;417.10;;;;;;;3.94;100.00;100190.47;5013273;28;20970;-45
2023/04/01 07:28:47;;;;;;;440.37;413.63;;;;;;;3.97;100.00;100193.63;5012770;28;20982;-43
2023/04/01 07:31:23;;;;;;;442.17;416.17;;;;;;;3.97;100.00;100208.63;5014334;28;20429;-45
2023/04/01 07:34:02;;;;;;;446.00;420.27;;;;;;;4.00;100.00;100213.56;5029805;28;20436;-42
2023/04/01 07:36:37;;;;;;;440.63;415.10;;;;;;;4.02;100.00;100211.56;5017123;28;20476;-44
2023/04/01 07:39:16;;;;;;;447.10;421.90;;;;;;;4.09;100.00;100212.56;5020053;28;20463;-43
2023/04/01 07:41:53;;;;;;;438.00;412.50;;;;;;;4.06;100.00;100202.34;5032434;28;20420;-43
2023/04/01 07:44:30;;;;;;;433.23;408.27;;;;;;;4.00;100.00;100209.09;5033079;28;20467;-43
2023/04/01 07:47:12;;;;;;;440.40;415.77;;;;;;;3.94;100.00;100259.06;5020628;28;20452;-43
2023/04/01 07:49:53;;;;;;;422.23;397.77;;;;;;;3.91;100.00;100232.00;5021841;28;20464;-43
2023/04/01 07:52:29;;;;;;;419.43;394.93;;;;;;;3.91;100.00;100252.31;5029933;28;20461;-43
2023/04/01 07:55:02;;;;;;;431.60;407.00;;;;;;;3.88;100.00;100231.53;5033442;28;20463;-43
2023/04/01 07:57:39;;;;;;;415.87;392.67;;;;;;;3.90;100.00;100235.66;5012929;28;20441;-43
2023/04/01 08:00:16;;;;;;;407.63;385.13;;;;;;;3.94;100.00;100254.63;5012783;28;20452;-42
2023/04/01 08:02:58;;;;;;;397.50;376.50;;;;;;;3.88;100.00;100258.72;5013345;28;20425;-42
2023/04/01 08:05:28;;;;;;;406.77;384.97;;;;;;;3.92;100.00;100256.56;5011950;28;20468;-43
2023/04/01 08:08:06;;;;;;;402.13;380.73;;;;;;;3.88;100.00;100264.00;5016785;28;20798;-43
2023/04/01 08:10:40;;;;;;;410.23;388.10;;;;;;;3.85;100.00;100227.41;5021743;28;20473;-43
2023/04/01 08:13:19;;;;;;;413.13;391.40;;;;;;;3.82;100.00;100274.41;5012041;28;20435;-43
2023/04/01 08:15:56;;;;;;;412.50;390.70;;;;;;;3.82;100.00;100271.75;5013171;28;20479;-42
2023/04/01 08:18:37;;;;;;;409.90;388.80;;;;;;;3.78;100.00;100286.25;5013134;28;20533;-44
2023/04/01 08:21:12;;;;;;;406.93;385.67;;;;;;;3.79;100.00;100280.81;5007031;28;20469;-42
2023/04/01 08:23:44;;;;;;;394.87;373.73;;;;;;;3.81;100.00;100275.38;5013499;28;20433;-42
2023/04/01 08:26:19;;;;;;;397.17;376.57;;;;;;;3.81;100.00;100278.84;5013597;28;20457;-49
2023/04/01 08:28:54;;;;;;;380.27;361.37;;;;;;;3.79;100.00;100251.78;5013041;28;20425;-42
2023/04/01 08:31:31;;;;;;;349.37;333.67;;;;;;;3.70;100.00;100294.97;5012926;28;20926;-42
2023/04/01 08:34:02;;;;;;;332.07;316.87;;;;;;;3.72;100.00;100282.47;5013452;28;20443;-42
2023/04/01 08:36:34;;;;;;;292.97;279.50;;;;;;;3.75;100.00;100305.88;5013271;28;20907;-44
2023/04/01 08:39:09;;;;;;;285.07;272.47;;;;;;;3.75;100.00;100321.69;5012590;28;20445;-43
2023/04/01 08:41:57;;;;;;;235.53;225.83;;;;;;;3.71;100.00;100287.88;5013401;28;20760;-44
2023/04/01 08:44:41;;;;;;;153.03;146.83;;;;;;;3.69;100.00;100329.44;5013200;28;20429;-43
2023/04/01 08:47:28;;;;;;;77.50;74.20;;;;;;;3.70;100.00;100310.00;5012996;28;20463;-43
2023/04/01 08:50:24;;;;;;;95.77;91.73;;;;;;;3.61;100.00;100319.72;5012700;28;20535;-42
2023/04/01 08:53:01;;;;;;;82.20;78.43;;;;;;;3.61;100.00;100310.97;5012662;28;20842;-43
2023/04/01 08:55:39;;;;;;;95.53;91.43;;;;;;;3.66;100.00;100325.31;5013007;28;20463;-42
2023/04/01 08:58:31;;;;;;;114.03;109.50;;;;;;;3.67;100.00;100318.22;5012690;28;20433;-43
2023/04/01 09:01:14;;;;;;;126.50;121.83;;;;;;;3.66;100.00;100348.22;5003791;28;20468;-43
2023/04/01 09:04:15;;;;;;;130.73;125.60;;;;;;;3.68;100.00;100336.50;5011846;28;20445;-44
2023/04/01 09:06:55;;;;;;;118.00;113.50;;;;;;;3.72;100.00;100337.84;5012721;28;20452;-43
2023/04/01 09:09:45;;;;;;;106.07;101.50;;;;;;;3.72;100.00;100326.47;5011558;28;20457;-45
2023/04/01 09:12:45;;;;;;;94.30;90.50;;;;;;;3.77;100.00;100334.72;5010799;28;20440;-43
2023/04/01 09:15:28;;;;;;;87.53;83.60;;;;;;;3.73;100.00;100344.75;5010976;28;20444;-45
2023/04/01 09:18:25;;;;;;;76.60;73.27;;;;;;;3.76;100.00;100351.53;5011232;28;20433;-46
2023/04/01 09:21:13;;;;;;;68.87;65.17;;;;;;;3.81;100.00;100352.69;4990175;28;20515;-43
2023/04/01 09:23:59;;;;;;;61.37;58.27;;;;;;;3.85;100.00;100369.81;5003662;28;20503;-46
2023/04/01 09:26:43;;;;;;;57.77;54.70;;;;;;;3.82;100.00;100364.06;5011518;28;20448;-43
2023/04/01 09:29:29;;;;;;;44.70;41.90;;;;;;;3.79;100.00;100354.66;5010564;28;20453;-43
2023/04/01 09:32:13;;;;;;;41.03;38.67;;;;;;;3.80;100.00;100374.78;5011665;28;20855;-45
2023/04/01 09:34:54;;;;;;;37.63;35.30;;;;;;;3.78;100.00;100395.22;5013885;28;20984;-47
2023/04/01 09:37:34;;;;;;;35.03;32.93;;;;;;;3.76;100.00;100386.63;5030815;28;20533;-44
2023/04/01 09:40:25;;;;;;;32.53;30.23;;;;;;;3.74;100.00;100398.31;5030445;28;20543;-43
2023/04/01 09:43:08;;;;;;;31.57;29.30;;;;;;;3.72;100.00;100416.13;5014448;28;20540;-43
2023/04/01 09:45:44;;;;;;;31.53;29.23;;;;;;;3.79;100.00;100404.75;5010884;28;20429;-43
2023/04/01 09:48:23;;;;;;;31.40;28.47;;;;;;;3.70;100.00;100386.47;5009136;28;21297;-44
2023/04/01 09:51:02;;;;;;;30.30;28.10;;;;;;;3.77;100.00;100419.94;5003162;28;20472;-44
2023/04/01 09:53:47;;;;;;;30.50;28.00;;;;;;;3.87;100.00;100425.06;5010400;28;20432;-44
2023/04/01 09:56:45;;;;;;;29.90;27.40;;;;;;;3.94;100.00;100415.53;5010722;28;20469;-45
2023/04/01 09:59:46;;;;;;;31.50;28.90;;;;;;;4.03;100.00;100427.75;5008583;28;20452;-47
2023/04/01 10:02:49;;;;;;;31.20;28.73;;;;;;;3.98;100.00;100431.84;5032888;28;21029;-43
2023/04/01 10:05:50;;;;;;;30.80;28.23;;;;;;;3.97;100.00;100457.44;5049803;28;20439;-44
2023/04/01 10:08:53;;;;;;;30.97;28.50;;;;;;;3.98;100.00;100437.13;5030495;28;20456;-45
2023/04/01 10:11:43;;;;;;;30.87;28.20;;;;;;;3.88;100.00;100440.72;5011322;28;20532;-44
2023/04/01 10:14:36;;;;;;;31.10;28.90;;;;;;;3.78;100.00;100440.06;5010602;28;20433;-44
2023/04/01 10:17:50;;;;;;;31.47;29.07;;;;;;;3.77;100.00;100429.66;5013033;28;20481;-44
2023/04/01 10:20:37;;;;;;;31.47;28.60;;;;;;;3.85;100.00;100412.03;5026755;28;20463;-45
2023/04/01 10:23:19;;;;;;;32.80;29.90;;;;;;;3.79;100.00;100444.31;5034525;28;20439;-44
2023/04/01 10:26:11;;;;;;;30.03;27.70;;;;;;;3.78;100.00;100429.50;5034699;28;20517;-44
2023/04/01 10:29:02;;;;;;;30.30;27.63;;;;;;;3.71;100.00;100456.66;5034694;28;20436;-44
2023/04/01 10:31:56;;;;;;;29.33;26.80;;;;;;;3.73;100.00;100462.63;5034666;28;20509;-46
2023/04/01 10:35:04;;;;;;;30.30;27.67;;;;;;;3.76;100.00;100439.38;5034950;28;20436;-44
2023/04/01 10:37:48;;;;;;;30.37;28.07;;;;;;;3.78;100.00;100469.06;5034364;28;20479;-44
2023/04/01 10:40:46;;;;;;;30.10;27.60;;;;;;;3.80;100.00;100468.88;5034119;28;20459;-47
2023/04/01 10:43:55;;;;;;;30.20;28.10;;;;;;;3.78;100.00;100465.59;5034506;28;20841;-44
2023/04/01 10:46:57;;;;;;;30.13;27.90;;;;;;;3.87;100.00;100468.09;5034405;28;20455;-45
2023/04/01 10:49:48;;;;;;;31.27;28.97;;;;;;;3.90;100.00;100467.78;5033655;28;21147;-44
2023/04/01 10:53:00;;;;;;;30.37;28.23;;;;;;;3.88;100.00;100482.13;5016617;28;20436;-47
2023/04/01 10:55:52;;;;;;;30.67;28.67;;;;;;;3.87;100.00;100483.09;5025535;28;20436;-44
2023/04/01 10:58:56;;;;;;;28.90;27.00;;;;;;;3.80;100.00;100476.81;5010998;28;20524;-51
2023/04/01 11:01:57;;;;;;;29.20;27.07;;;;;;;3.81;100.00;100491.66;5011534;28;20444;-42
2023/04/01 11:05:15;;;;;;;29.80;27.70;;;;;;;3.77;100.00;100491.13;5034189;28;20538;-48
2023/04/01 11:08:15;;;;;;;28.87;26.83;;;;;;;3.80;100.00;100500.53;5020620;28;20464;-44
2023/04/01 11:11:03;;;;;;;30.27;28.27;;;;;;;3.81;100.00;100489.03;5013914;28;20461;-44
2023/04/01 11:14:00;;;;;;;31.33;29.00;;;;;;;3.80;100.00;100497.91;5013982;28;20949;-44
2023/04/01 11:17:02;;;;;;;28.87;26.97;;;;;;;3.77;100.00;100514.88;5013732;28;20457;-44
2023/04/01 11:19:51;;;;;;;30.40;28.30;;;;;;;3.78;100.00;100500.72;4995160;28;20460;-46
2023/04/01 11:22:37;;;;;;;29.03;27.10;;;;;;;3.77;100.00;100520.16;5013698;28;20441;-48
2023/04/01 11:25:18;;;;;;;29.50;26.80;;;;;;;3.77;100.00;100509.59;5013671;28;20437;-44
2023/04/01 11:28:17;;;;;;;28.70;26.70;;;;;;;3.83;100.00;100516.88;5016143;28;20455;-43
2023/04/01 11:31:12;;;;;;;27.40;25.60;;;;;;;3.86;100.00;100529.75;5033302;28;20475;-46
2023/04/01 11:33:50;;;;;;;28.30;26.27;;;;;;;3.89;100.00;100537.34;5033367;28;20494;-44
2023/04/01 11:36:30;;;;;;;28.23;26.13;;;;;;;3.87;100.00;100547.25;5033044;28;20462;-45
2023/04/01 11:39:11;;;;;;;30.03;27.73;;;;;;;3.87;100.00;100552.53;5032601;28;20464;-45
2023/04/01 11:41:44;;;;;;;28.17;26.17;;;;;;;3.91;100.00;100553.84;5032879;28;20847;-44
2023/04/01 11:44:18;;;;;;;30.27;27.97;;;;;;;4.02;100.00;100551.91;5032965;28;20479;-45
2023/04/01 11:47:04;;;;;;;28.93;26.73;;;;;;;4.02;100.00;100551.91;5032968;28;20897;-44